Latest Weather Observations for Deniliquin

IDN60801

Issued at 3:35 pm EDT Sunday 26 October 2014 (issued every 30 minutes, with the page automatically refreshed every 10 minutes)

About weather observations | Map of weather stations | Latest weather observations for NSW | Other Formats
Station Details ID: 074258 Name: DENILIQUIN AIRPORT AWS Lat: -35.56 Lon: 144.95 Height: 94.0 m
Data from the previous 72 hours. | See also: Recent months at Deniliquin
Date/Time
EDT
Temp
°C
App
Temp
°C
Dew
Point
Rel
Hum
%
Delta-T
°C
Wind Press
QNH
hPa
Press
MSL
hPa
Rain
since 9 am
mm
Dir
 
Spd
km/h
Gust
km/h
Spd
kts
Gust
kts
26/03:30pm 25.8 21.1 5.9 28 10.3 WSW 20 26 11 14 1011.9 1011.8 0.0
26/03:00pm 26.3 21.7 6.3 28 10.5 WSW 20 30 11 16 1012.2 1012.1 0.0
26/02:30pm 26.4 20.4 5.4 26 10.8 W 26 37 14 20 1012.3 1012.2 0.0
26/02:00pm 27.7 21.2 4.7 23 11.8 W 28 39 15 21 1012.4 1012.3 0.0
26/01:30pm 27.9 23.5 7.2 27 11.1 W 20 28 11 15 1012.6 1012.5 0.0
26/01:00pm 26.0 21.3 6.1 28 10.3 W 20 32 11 17 1012.9 1012.8 0.0
26/12:30pm 25.5 21.1 6.7 30 9.8 SW 19 24 10 13 1012.2 1012.1 0.0
26/12:00pm 24.8 21.1 6.5 31 9.5 WSW 15 22 8 12 1012.6 1012.5 0.0
26/11:30am 24.6 21.9 7.3 33 9.1 W 11 19 6 10 1012.7 1012.6 0.0
26/11:00am 22.8 19.5 6.6 35 8.3 W 13 20 7 11 1013.0 1012.9 0.0
26/10:30am 21.7 19.4 8.9 44 6.8 WSW 11 19 6 10 1013.3 1013.2 0.0
26/10:00am 20.4 18.1 9.0 48 6.0 WSW 11 17 6 9 1013.2 1013.1 0.0
26/09:30am 19.3 17.4 9.2 52 5.3 SW 9 13 5 7 1012.9 1012.8 0.0
26/09:00am 16.7 15.3 9.6 63 3.7 SW 7 11 4 6 1013.0 1012.9 0.0
26/08:30am 14.9 13.2 9.9 72 2.6 SSW 9 13 5 7 1013.0 1012.9 0.0
26/08:00am 13.2 10.3 9.8 80 1.8 SW 15 19 8 10 1012.9 1012.8 0.0
26/07:30am 11.4 9.2 9.3 87 1.1 WSW 11 17 6 9 1012.5 1012.4 0.0
26/07:00am 10.0 7.6 8.8 92 0.6 WSW 11 13 6 7 1012.3 1012.2 0.0
26/06:30am 9.7 7.3 8.8 94 0.4 WSW 11 13 6 7 1011.8 1011.7 0.0
26/06:00am 9.7 7.6 8.1 90 0.8 WSW 9 13 5 7 1011.4 1011.3 0.0
26/05:30am 10.5 7.5 9.1 91 0.7 WSW 15 17 8 9 1011.5 1011.4 0.0
26/05:00am 10.3 7.9 8.6 89 0.8 W 11 13 6 7 1011.4 1011.3 0.0
26/04:30am 10.8 8.4 8.6 86 1.1 SW 11 13 6 7 1011.0 1010.9 0.0
26/04:00am 11.0 9.0 8.6 85 1.2 WSW 9 13 5 7 1011.0 1010.9 0.0
26/03:30am 12.0 9.4 9.2 83 1.4 SW 13 17 7 9 1011.0 1010.9 0.0
26/03:00am 12.5 10.0 9.7 83 1.4 SW 13 15 7 8 1011.3 1011.2 0.0
26/02:30am 12.4 10.2 9.2 81 1.6 SW 11 13 6 7 1011.4 1011.3 0.0
26/02:00am 13.4 11.6 9.5 77 2.0 SW 9 11 5 6 1011.5 1011.4 0.0
26/01:30am 14.7 12.7 10.1 74 2.4 SSW 11 13 6 7 1011.7 1011.6 0.0
26/01:00am 15.2 12.9 10.4 73 2.5 SW 13 17 7 9 1012.0 1011.9 0.0
26/12:30am 15.3 13.2 9.9 70 2.8 SW 11 13 6 7 1012.0 1011.9 0.0
26/12:00am 16.7 15.1 10.1 65 3.5 SW 9 11 5 6 1012.0 1011.9 0.0
 
Date/Time
EDT
Temp
°C
App
Temp
°C
Dew
Point
Rel
Hum
%
Delta-T
°C
Wind Press
QNH
hPa
Press
MSL
hPa
Rain
since 9 am
mm
Dir
 
Spd
km/h
Gust
km/h
Spd
kts
Gust
kts
25/11:30pm 19.0 16.7 10.3 57 4.7 SSW 13 17 7 9 1011.9 1011.8 0.0
25/11:00pm 20.6 17.2 10.7 53 5.4 SSW 19 24 10 13 1011.9 1011.8 0.0
25/10:30pm 21.2 18.0 9.8 48 6.2 SW 17 20 9 11 1011.9 1011.8 0.0
25/10:00pm 21.6 18.6 9.2 45 6.6 SW 15 19 8 10 1011.7 1011.6 0.0
25/09:30pm 20.4 16.8 9.9 51 5.7 W 19 30 10 16 1011.5 1011.4 0.0
25/09:00pm 21.9 19.7 9.4 45 6.7 SW 11 13 6 7 1011.0 1010.9 0.0
25/08:30pm 23.4 20.8 9.4 41 7.6 SW 13 15 7 8 1010.5 1010.4 0.0
25/08:00pm 25.9 22.9 9.3 35 9.1 SSW 15 17 8 9 1010.3 1010.2 0.0
25/07:30pm 28.0 24.6 9.3 31 10.4 SSW 17 22 9 12 1009.9 1009.8 0.0
25/07:00pm 29.6 24.3 8.6 27 11.6 SSW 26 33 14 18 1009.3 1009.2 0.0
25/06:30pm 31.2 24.3 8.8 25 12.5 SW 35 46 19 25 1009.0 1008.9 0.0
25/06:24pm 31.8 26.2 8.7 24 12.9 SSW 28 46 15 25 1008.8 1008.7 0.0
25/06:00pm 32.9 27.5 6.2 19 14.5 SSW 24 32 13 17 1008.6 1008.5 0.0
25/05:30pm 33.8 29.7 4.5 16 15.5 S 15 20 8 11 1008.3 1008.2 0.0
25/05:00pm 33.9 29.4 6.3 18 15.1 S 19 26 10 14 1008.2 1008.1 0.0
25/04:30pm 33.9 29.1 4.6 16 15.5 S 19 24 10 13 1008.5 1008.4 0.0
25/04:00pm 33.7 28.5 3.5 15 15.7 SSW 20 24 11 13 1009.0 1008.9 0.0
25/03:30pm 34.0 30.0 2.8 14 16.1 SE 13 19 7 10 1009.3 1009.2 0.0
25/03:00pm 34.8 29.6 2.3 13 16.7 S 19 26 10 14 1009.7 1009.6 0.0
25/02:30pm 34.6 29.5 4.2 15 16.1 WSW 20 26 11 14 1010.3 1010.2 0.0
25/02:00pm 34.3 31.3 1.9 13 16.5 ENE 7 15 4 8 1011.1 1011.0 0.0
25/01:30pm 32.9 30.2 2.9 15 15.4 ENE 6 13 3 7 1011.6 1011.5 0.0
25/01:00pm 31.6 27.9 4.4 18 14.2 NE 13 22 7 12 1012.1 1012.0 0.0
25/12:30pm 31.4 27.5 7.1 22 13.2 NNE 17 24 9 13 1012.7 1012.6 0.0
25/12:00pm 29.5 25.7 7.4 25 12.0 ENE 17 24 9 13 1013.3 1013.2 0.0
25/11:30am 28.1 25.7 9.9 32 10.2 E 13 17 7 9 1014.0 1013.9 0.0
25/11:00am 26.4 24.2 10.9 38 8.8 E 13 17 7 9 1014.5 1014.4 0.0
25/10:30am 24.8 23.0 11.0 42 7.8 E 11 15 6 8 1014.8 1014.7 0.0
25/10:00am 23.9 21.7 10.9 44 7.3 E 13 17 7 9 1014.9 1014.8 0.0
25/09:30am 22.4 20.6 12.1 52 5.8 E 13 17 7 9 1014.8 1014.7 0.0
25/09:00am 20.9 18.7 12.1 57 4.9 E 15 19 8 10 1015.2 1015.1 0.0
25/08:30am 20.2 18.5 11.1 56 5.0 ESE 11 13 6 7 1015.3 1015.2 0.0
25/08:00am 19.2 18.4 11.0 59 4.5 E 6 9 3 5 1015.1 1015.0 0.0
25/07:30am 16.7 16.5 9.1 61 3.9 CALM 0 0 0 0 1014.9 1014.8 0.0
25/07:00am 14.8 12.9 7.6 62 3.6 SE 7 9 4 5 1014.3 1014.2 0.0
25/06:30am 14.6 12.0 6.2 57 4.1 SSE 9 11 5 6 1013.9 1013.8 0.0
25/06:00am 14.4 12.3 6.5 59 3.8 S 7 9 4 5 1013.7 1013.6 0.0
25/05:30am 14.4 13.4 5.7 56 4.1 CALM 0 0 0 0 1013.4 1013.3 0.0
25/05:00am 15.1 13.1 4.2 48 5.1 SSW 4 7 2 4 1013.3 1013.2 0.0
25/04:30am 15.3 13.6 6.1 54 4.5 SSW 4 6 2 3 1013.3 1013.2 0.0
25/04:00am 16.3 13.8 4.0 44 5.7 SW 6 7 3 4 1013.1 1013.0 0.0
25/03:30am 15.3 13.0 5.5 52 4.7 SSW 7 9 4 5 1013.2 1013.1 0.0
25/03:00am 16.1 13.8 4.8 47 5.4 W 6 7 3 4 1013.1 1013.0 0.0
25/02:30am 16.8 14.2 3.1 40 6.3 W 6 6 3 3 1013.2 1013.1 0.0
25/02:00am 17.2 14.8 4.5 43 6.0 W 6 7 3 4 1013.3 1013.2 0.0
25/01:30am 18.0 15.0 1.1 32 7.5 W 6 7 3 4 1013.6 1013.5 0.0
25/01:00am 16.9 14.1 2.9 39 6.4 WSW 7 9 4 5 1013.9 1013.8 0.0
25/12:30am 19.4 15.5 1.4 30 8.2 W 11 13 6 7 1014.1 1014.0 0.0
25/12:00am 20.4 16.1 0.8 27 8.9 W 13 13 7 7 1014.2 1014.1 0.0
 
Date/Time
EDT
Temp
°C
App
Temp
°C
Dew
Point
Rel
Hum
%
Delta-T
°C
Wind Press
QNH
hPa
Press
MSL
hPa
Rain
since 9 am
mm
Dir
 
Spd
km/h
Gust
km/h
Spd
kts
Gust
kts
24/11:30pm 20.4 16.2 1.8 29 8.6 WNW 13 15 7 8 1014.3 1014.2 0.0
24/11:00pm 19.9 16.2 2.3 31 8.2 NW 11 11 6 6 1014.1 1014.0 0.0
24/10:30pm 21.1 17.2 1.4 27 9.1 NW 11 13 6 7 1013.9 1013.8 0.0
24/10:00pm 21.3 17.5 1.6 27 9.1 NNW 11 13 6 7 1013.7 1013.6 0.0
24/09:30pm 21.9 18.4 1.5 26 9.5 NW 9 11 5 6 1013.5 1013.4 0.0
24/09:00pm 21.5 17.7 1.7 27 9.2 NW 11 13 6 7 1013.2 1013.1 0.0
24/08:30pm 24.0 19.9 -0.3 20 11.1 WNW 11 11 6 6 1012.8 1012.7 0.0
24/08:00pm 25.1 20.3 -0.1 19 11.6 W 15 17 8 9 1012.8 1012.7 0.0
24/07:30pm 27.7 22.2 -2.2 14 13.6 W 17 20 9 11 1012.6 1012.5 0.0
24/07:00pm 29.8 23.9 -2.6 12 14.8 W 19 28 10 15 1011.8 1011.7 0.0
24/06:30pm 30.4 24.2 -3.3 11 15.3 W 20 26 11 14 1011.5 1011.4 0.0
24/06:00pm 30.8 25.9 -0.8 13 15.0 W 15 24 8 13 1011.3 1011.2 0.0
24/05:30pm 30.8 24.1 -0.8 13 15.0 W 24 32 13 17 1011.2 1011.1 0.0
24/05:00pm 30.8 23.8 -0.8 13 15.0 WSW 26 39 14 21 1011.2 1011.1 0.0
24/04:30pm 31.0 24.5 0.4 14 14.9 W 24 39 13 21 1011.3 1011.2 0.0
24/04:00pm 30.6 25.3 1.9 16 14.3 W 19 28 10 15 1011.4 1011.3 0.0
24/03:30pm 31.0 24.4 2.3 16 14.4 W 26 33 14 18 1011.6 1011.5 0.0
24/03:00pm 31.0 25.0 3.1 17 14.2 W 24 33 13 18 1011.6 1011.5 0.0
24/02:30pm 31.7 26.5 7.4 22 13.3 W 24 33 13 18 1012.0 1011.9 0.0
24/02:00pm 31.3 26.6 7.7 23 13.0 WNW 22 32 12 17 1012.0 1011.9 0.0
24/01:30pm 31.4 25.9 5.8 20 13.7 W 24 35 13 19 1012.1 1012.0 0.0
24/01:00pm 30.2 24.7 6.1 22 12.8 W 24 33 13 18 1012.3 1012.2 0.0
24/12:30pm 30.7 24.5 7.8 24 12.6 W 30 39 16 21 1012.4 1012.3 0.0
24/12:00pm 30.4 24.5 7.6 24 12.5 W 28 35 15 19 1012.4 1012.3 0.0
24/11:30am 30.4 25.8 8.2 25 12.3 W 22 30 12 16 1012.4 1012.3 0.0
24/11:00am 30.2 27.1 11.7 32 10.8 W 19 26 10 14 1012.6 1012.5 0.0
24/10:30am 28.4 25.9 12.3 37 9.4 WNW 17 20 9 11 1012.5 1012.4 0.0
24/10:00am 27.2 26.5 13.2 42 8.3 WNW 9 15 5 8 1012.5 1012.4 0.0
24/09:30am 25.5 24.5 12.4 44 7.6 NW 9 13 5 7 1012.6 1012.5 0.0
24/09:00am 24.1 22.5 11.4 45 7.2 NW 11 15 6 8 1012.6 1012.5 0.0
24/08:30am 22.1 20.6 10.6 48 6.3 N 9 13 5 7 1012.6 1012.5 0.0
24/08:00am 20.1 19.0 12.1 60 4.5 N 9 13 5 7 1012.5 1012.4 0.0
24/07:30am 17.6 17.1 13.9 79 2.1 NNE 9 11 5 6 1012.4 1012.3 0.0
24/07:00am 15.4 14.9 14.8 96 0.3 NE 11 13 6 7 1012.2 1012.1 0.0
24/06:30am 13.8 12.8 13.3 97 0.3 ENE 11 13 6 7 1012.1 1012.0 0.0
24/06:00am 12.7 11.8 11.4 92 0.7 E 7 11 4 6 1011.5 1011.4 0.0
24/05:30am 13.3 12.6 11.9 91 0.8 NNW 7 9 4 5 1011.4 1011.3 0.0
24/05:00am 13.9 14.6 12.1 89 1.0 CALM 0 0 0 0 1011.1 1011.0 0.0
24/04:30am 14.5 15.3 12.4 87 1.1 CALM 0 0 0 0 1010.9 1010.8 0.0
24/04:00am 14.9 15.1 12.9 88 1.1 NNE 4 7 2 4 1011.0 1010.9 0.0
24/03:30am 15.6 16.8 13.8 89 1.0 CALM 0 0 0 0 1010.8 1010.7 0.0
24/03:00am 15.6 16.7 13.6 88 1.1 CALM 0 0 0 0 1011.1 1011.0 0.0
24/02:30am 15.9 17.0 13.4 85 1.4 CALM 0 0 0 0 1011.4 1011.3 0.0
24/02:00am 15.7 15.2 12.8 83 1.6 W 7 9 4 5 1011.6 1011.5 0.0
24/01:30am 15.9 15.5 12.3 79 2.0 W 6 7 3 4 1011.8 1011.7 0.0
24/01:00am 17.0 16.8 13.1 78 2.2 SW 6 7 3 4 1012.1 1012.0 0.0
24/12:30am 17.9 17.8 13.8 77 2.3 WSW 7 9 4 5 1012.2 1012.1 0.0
24/12:00am 18.5 17.8 13.1 71 3.1 W 9 13 5 7 1012.2 1012.1 0.0
 
Date/Time
EDT
Temp
°C
App
Temp
°C
Dew
Point
Rel
Hum
%
Delta-T
°C
Wind Press
QNH
hPa
Press
MSL
hPa
Rain
since 9 am
mm
Dir
 
Spd
km/h
Gust
km/h
Spd
kts
Gust
kts
23/11:30pm 20.0 18.7 13.7 67 3.6 W 13 17 7 9 1012.2 1012.1 0.0
23/11:00pm 21.5 20.8 14.2 63 4.3 S 11 15 6 8 1012.2 1012.1 0.0
23/10:30pm 22.4 22.1 14.5 61 4.7 SSE 9 11 5 6 1012.0 1011.9 0.0
23/10:00pm 22.6 22.1 12.5 53 5.8 SSE 7 11 4 6 1011.8 1011.7 0.0
23/09:30pm 22.7 20.3 8.8 41 7.4 S 11 13 6 7 1011.4 1011.3 0.0
23/09:00pm 23.7 20.1 6.9 34 8.7 SW 15 19 8 10 1011.1 1011.0 0.0
23/08:30pm 25.5 22.5 7.6 32 9.5 W 13 17 7 9 1010.5 1010.4 0.0
23/08:00pm 28.7 26.7 6.1 24 12.0 WNW 6 6 3 3 1010.2 1010.1 0.0
23/07:30pm 29.7 27.7 8.7 27 11.6 WSW 9 11 5 6 1010.0 1009.9 0.0
23/07:00pm 32.0 30.1 8.9 24 13.0 W 9 13 5 7 1009.9 1009.8 0.0
23/06:30pm 33.8 29.9 3.6 15 15.8 W 13 17 7 9 1009.7 1009.6 0.0
23/06:00pm 35.3 30.7 1.6 12 17.2 WNW 15 22 8 12 1009.7 1009.6 0.0
23/05:30pm 35.6 30.5 0.6 11 17.6 WNW 17 24 9 13 1009.8 1009.7 0.0
23/05:00pm 35.2 30.0 2.6 13 16.9 WSW 19 24 10 13 1009.9 1009.8 0.0
23/04:30pm 35.7 31.9 1.9 12 17.3 WNW 11 20 6 11 1010.1 1010.0 0.0
23/04:00pm 36.1 32.6 3.3 13 17.3 NW 11 19 6 10 1010.2 1010.1 0.0

Other Formats:

Comma delimited format used in spreadsheet applications
http://www.bom.gov.au/fwo/IDN60801/IDN60801.95869.axf

JavaScript Object Notation format (JSON) in row-major order
http://www.bom.gov.au/fwo/IDN60801/IDN60801.95869.json